sensor_id;sensor_type;location;lat;lon;timestamp;temperature;humidity
18041;DHT22;9145;48.588;9.250;2023-05-20T00:00:55;12.80;99.90
18041;DHT22;9145;48.588;9.250;2023-05-20T00:03:22;12.80;99.90
18041;DHT22;9145;48.588;9.250;2023-05-20T00:05:49;12.80;99.90
18041;DHT22;9145;48.588;9.250;2023-05-20T00:08:17;12.80;99.90
18041;DHT22;9145;48.588;9.250;2023-05-20T00:10:44;12.80;99.90
18041;DHT22;9145;48.588;9.250;2023-05-20T00:13:11;12.80;99.90
18041;DHT22;9145;48.588;9.250;2023-05-20T00:15:39;12.70;99.90
18041;DHT22;9145;48.588;9.250;2023-05-20T00:18:06;12.70;99.90
18041;DHT22;9145;48.588;9.250;2023-05-20T00:20:33;12.70;99.90
18041;DHT22;9145;48.588;9.250;2023-05-20T00:23:00;12.70;99.90
18041;DHT22;9145;48.588;9.250;2023-05-20T00:25:27;12.70;99.90
18041;DHT22;9145;48.588;9.250;2023-05-20T00:27:56;12.70;99.90
18041;DHT22;9145;48.588;9.250;2023-05-20T00:30:23;12.70;99.90
18041;DHT22;9145;48.588;9.250;2023-05-20T00:32:51;12.70;99.90
18041;DHT22;9145;48.588;9.250;2023-05-20T00:35:18;12.70;99.90
18041;DHT22;9145;48.588;9.250;2023-05-20T00:37:45;12.70;99.90
18041;DHT22;9145;48.588;9.250;2023-05-20T00:40:12;12.70;99.90
18041;DHT22;9145;48.588;9.250;2023-05-20T00:42:40;12.80;99.90
18041;DHT22;9145;48.588;9.250;2023-05-20T00:45:08;12.70;99.90
18041;DHT22;9145;48.588;9.250;2023-05-20T00:47:35;12.80;99.90
18041;DHT22;9145;48.588;9.250;2023-05-20T00:50:04;12.70;99.90
18041;DHT22;9145;48.588;9.250;2023-05-20T00:52:31;12.70;99.90
18041;DHT22;9145;48.588;9.250;2023-05-20T00:54:59;12.60;99.90
18041;DHT22;9145;48.588;9.250;2023-05-20T00:57:26;12.60;99.90
18041;DHT22;9145;48.588;9.250;2023-05-20T00:59:53;12.60;99.90
18041;DHT22;9145;48.588;9.250;2023-05-20T01:02:21;12.60;99.90
18041;DHT22;9145;48.588;9.250;2023-05-20T01:04:48;12.50;99.90
18041;DHT22;9145;48.588;9.250;2023-05-20T01:07:17;12.60;99.90
18041;DHT22;9145;48.588;9.250;2023-05-20T01:09:45;12.50;99.90
18041;DHT22;9145;48.588;9.250;2023-05-20T01:12:15;12.50;99.90
18041;DHT22;9145;48.588;9.250;2023-05-20T01:14:46;12.60;99.90
18041;DHT22;9145;48.588;9.250;2023-05-20T01:17:14;12.50;99.90
18041;DHT22;9145;48.588;9.250;2023-05-20T01:19:43;12.50;99.90
18041;DHT22;9145;48.588;9.250;2023-05-20T01:22:12;12.50;99.90
18041;DHT22;9145;48.588;9.250;2023-05-20T01:24:41;12.50;99.90
18041;DHT22;9145;48.588;9.250;2023-05-20T01:27:09;12.50;99.90
18041;DHT22;9145;48.588;9.250;2023-05-20T01:29:36;12.50;99.90
18041;DHT22;9145;48.588;9.250;2023-05-20T01:32:06;12.50;99.90
18041;DHT22;9145;48.588;9.250;2023-05-20T01:34:34;12.60;99.90
18041;DHT22;9145;48.588;9.250;2023-05-20T01:37:03;12.50;99.90
18041;DHT22;9145;48.588;9.250;2023-05-20T01:39:31;12.50;99.90
18041;DHT22;9145;48.588;9.250;2023-05-20T01:42:01;12.50;99.90
18041;DHT22;9145;48.588;9.250;2023-05-20T01:44:29;12.50;99.90
18041;DHT22;9145;48.588;9.250;2023-05-20T01:46:56;12.60;99.90
18041;DHT22;9145;48.588;9.250;2023-05-20T01:49:23;12.50;99.90
18041;DHT22;9145;48.588;9.250;2023-05-20T01:51:50;12.60;99.90
18041;DHT22;9145;48.588;9.250;2023-05-20T01:54:16;12.60;99.90
18041;DHT22;9145;48.588;9.250;2023-05-20T01:56:44;12.50;99.90
18041;DHT22;9145;48.588;9.250;2023-05-20T01:59:12;12.50;99.90
18041;DHT22;9145;48.588;9.250;2023-05-20T02:01:39;12.60;99.90
18041;DHT22;9145;48.588;9.250;2023-05-20T02:04:06;12.60;99.90
18041;DHT22;9145;48.588;9.250;2023-05-20T02:06:33;12.50;99.90
18041;DHT22;9145;48.588;9.250;2023-05-20T02:09:00;12.50;99.90
18041;DHT22;9145;48.588;9.250;2023-05-20T02:11:27;12.40;99.90
18041;DHT22;9145;48.588;9.250;2023-05-20T02:13:53;12.30;99.90
18041;DHT22;9145;48.588;9.250;2023-05-20T02:16:22;12.30;99.90
18041;DHT22;9145;48.588;9.250;2023-05-20T02:18:48;12.30;99.90
18041;DHT22;9145;48.588;9.250;2023-05-20T02:21:17;12.30;99.90
18041;DHT22;9145;48.588;9.250;2023-05-20T02:23:44;12.30;99.90
18041;DHT22;9145;48.588;9.250;2023-05-20T02:26:11;12.30;99.90
18041;DHT22;9145;48.588;9.250;2023-05-20T02:28:37;12.20;99.90
18041;DHT22;9145;48.588;9.250;2023-05-20T02:31:08;12.20;99.90
18041;DHT22;9145;48.588;9.250;2023-05-20T02:33:36;12.20;99.90
18041;DHT22;9145;48.588;9.250;2023-05-20T02:36:03;12.20;99.90
18041;DHT22;9145;48.588;9.250;2023-05-20T02:38:30;12.10;99.90
18041;DHT22;9145;48.588;9.250;2023-05-20T02:40:57;12.10;99.90
18041;DHT22;9145;48.588;9.250;2023-05-20T02:43:24;12.10;99.90
18041;DHT22;9145;48.588;9.250;2023-05-20T02:45:51;12.10;99.90
18041;DHT22;9145;48.588;9.250;2023-05-20T02:48:18;12.10;99.90
18041;DHT22;9145;48.588;9.250;2023-05-20T02:50:47;12.10;99.90
18041;DHT22;9145;48.588;9.250;2023-05-20T02:53:13;12.00;99.90
18041;DHT22;9145;48.588;9.250;2023-05-20T02:55:40;12.00;99.90
18041;DHT22;9145;48.588;9.250;2023-05-20T02:58:09;12.00;99.90
18041;DHT22;9145;48.588;9.250;2023-05-20T03:00:37;12.00;99.90
18041;DHT22;9145;48.588;9.250;2023-05-20T03:03:05;12.00;99.90
18041;DHT22;9145;48.588;9.250;2023-05-20T03:05:32;12.00;99.90
18041;DHT22;9145;48.588;9.250;2023-05-20T03:08:05;11.90;99.90
18041;DHT22;9145;48.588;9.250;2023-05-20T03:10:32;11.90;99.90
18041;DHT22;9145;48.588;9.250;2023-05-20T03:12:59;11.80;99.90
18041;DHT22;9145;48.588;9.250;2023-05-20T03:15:25;11.90;99.90
18041;DHT22;9145;48.588;9.250;2023-05-20T03:17:52;11.80;99.90
18041;DHT22;9145;48.588;9.250;2023-05-20T03:20:19;11.80;99.90
18041;DHT22;9145;48.588;9.250;2023-05-20T03:22:46;11.80;99.90
18041;DHT22;9145;48.588;9.250;2023-05-20T03:25:14;11.80;99.90
18041;DHT22;9145;48.588;9.250;2023-05-20T03:27:41;11.80;99.90
18041;DHT22;9145;48.588;9.250;2023-05-20T03:30:09;11.80;99.90
18041;DHT22;9145;48.588;9.250;2023-05-20T03:32:37;11.80;99.90
18041;DHT22;9145;48.588;9.250;2023-05-20T03:35:04;11.80;99.90
18041;DHT22;9145;48.588;9.250;2023-05-20T03:37:31;11.80;99.90
18041;DHT22;9145;48.588;9.250;2023-05-20T03:39:58;11.90;99.90
18041;DHT22;9145;48.588;9.250;2023-05-20T03:42:27;12.00;99.90
18041;DHT22;9145;48.588;9.250;2023-05-20T03:44:53;12.00;99.90
18041;DHT22;9145;48.588;9.250;2023-05-20T03:47:20;12.00;99.90
18041;DHT22;9145;48.588;9.250;2023-05-20T03:49:47;12.00;99.90
18041;DHT22;9145;48.588;9.250;2023-05-20T03:52:14;12.00;99.90
18041;DHT22;9145;48.588;9.250;2023-05-20T03:54:41;12.00;99.90
18041;DHT22;9145;48.588;9.250;2023-05-20T03:57:07;12.00;99.90
18041;DHT22;9145;48.588;9.250;2023-05-20T03:59:36;12.00;99.90
18041;DHT22;9145;48.588;9.250;2023-05-20T04:02:03;12.00;99.90
18041;DHT22;9145;48.588;9.250;2023-05-20T04:04:30;12.00;99.90
18041;DHT22;9145;48.588;9.250;2023-05-20T04:06:58;11.90;99.90
18041;DHT22;9145;48.588;9.250;2023-05-20T04:09:25;11.80;99.90
18041;DHT22;9145;48.588;9.250;2023-05-20T04:11:52;11.80;99.90
18041;DHT22;9145;48.588;9.250;2023-05-20T04:14:18;11.70;99.90
18041;DHT22;9145;48.588;9.250;2023-05-20T04:16:47;11.70;99.90
18041;DHT22;9145;48.588;9.250;2023-05-20T04:19:14;11.70;99.90
18041;DHT22;9145;48.588;9.250;2023-05-20T04:21:44;11.60;99.90
18041;DHT22;9145;48.588;9.250;2023-05-20T04:24:11;11.60;99.90
18041;DHT22;9145;48.588;9.250;2023-05-20T04:26:38;11.60;99.90
18041;DHT22;9145;48.588;9.250;2023-05-20T04:29:04;11.70;99.90
18041;DHT22;9145;48.588;9.250;2023-05-20T04:31:31;11.80;99.90
18041;DHT22;9145;48.588;9.250;2023-05-20T04:33:59;11.90;99.90
18041;DHT22;9145;48.588;9.250;2023-05-20T04:36:27;12.00;99.90
18041;DHT22;9145;48.588;9.250;2023-05-20T04:38:54;12.10;99.90
18041;DHT22;9145;48.588;9.250;2023-05-20T04:41:20;12.20;99.90
18041;DHT22;9145;48.588;9.250;2023-05-20T04:43:48;12.40;99.90
18041;DHT22;9145;48.588;9.250;2023-05-20T04:46:15;12.40;99.90
18041;DHT22;9145;48.588;9.250;2023-05-20T04:48:42;12.50;99.90
18041;DHT22;9145;48.588;9.250;2023-05-20T04:51:10;12.60;99.90
18041;DHT22;9145;48.588;9.250;2023-05-20T04:53:37;12.70;99.90
18041;DHT22;9145;48.588;9.250;2023-05-20T04:56:05;12.80;99.90
18041;DHT22;9145;48.588;9.250;2023-05-20T04:58:32;12.80;99.90
18041;DHT22;9145;48.588;9.250;2023-05-20T05:00:59;12.90;99.90
18041;DHT22;9145;48.588;9.250;2023-05-20T05:03:27;13.00;99.90
18041;DHT22;9145;48.588;9.250;2023-05-20T05:05:55;13.00;99.90
18041;DHT22;9145;48.588;9.250;2023-05-20T05:08:23;13.00;99.90
18041;DHT22;9145;48.588;9.250;2023-05-20T05:10:50;13.00;99.90
18041;DHT22;9145;48.588;9.250;2023-05-20T05:13:17;13.00;99.90
18041;DHT22;9145;48.588;9.250;2023-05-20T05:15:44;12.90;99.90
18041;DHT22;9145;48.588;9.250;2023-05-20T05:18:11;12.80;99.90
18041;DHT22;9145;48.588;9.250;2023-05-20T05:20:42;12.70;99.90
18041;DHT22;9145;48.588;9.250;2023-05-20T05:23:09;12.70;99.90
18041;DHT22;9145;48.588;9.250;2023-05-20T05:25:37;12.80;99.90
18041;DHT22;9145;48.588;9.250;2023-05-20T05:28:04;12.90;99.90
18041;DHT22;9145;48.588;9.250;2023-05-20T05:30:31;13.00;99.90
18041;DHT22;9145;48.588;9.250;2023-05-20T05:32:58;13.00;99.90
18041;DHT22;9145;48.588;9.250;2023-05-20T05:35:24;13.10;99.90
18041;DHT22;9145;48.588;9.250;2023-05-20T05:37:51;13.10;99.90
18041;DHT22;9145;48.588;9.250;2023-05-20T05:40:18;13.20;99.90
18041;DHT22;9145;48.588;9.250;2023-05-20T05:42:46;13.30;99.90
18041;DHT22;9145;48.588;9.250;2023-05-20T05:45:13;13.30;99.90
18041;DHT22;9145;48.588;9.250;2023-05-20T05:47:41;13.40;99.90
18041;DHT22;9145;48.588;9.250;2023-05-20T05:50:08;13.40;99.90
18041;DHT22;9145;48.588;9.250;2023-05-20T05:52:35;13.50;99.90
18041;DHT22;9145;48.588;9.250;2023-05-20T05:55:02;13.60;99.90
18041;DHT22;9145;48.588;9.250;2023-05-20T05:57:29;13.70;99.90
18041;DHT22;9145;48.588;9.250;2023-05-20T05:59:57;13.80;99.90
18041;DHT22;9145;48.588;9.250;2023-05-20T06:02:25;13.90;99.90
18041;DHT22;9145;48.588;9.250;2023-05-20T06:04:52;13.90;99.90
18041;DHT22;9145;48.588;9.250;2023-05-20T06:07:19;14.00;99.90
18041;DHT22;9145;48.588;9.250;2023-05-20T06:09:46;14.10;99.90
18041;DHT22;9145;48.588;9.250;2023-05-20T06:12:13;14.10;99.90
18041;DHT22;9145;48.588;9.250;2023-05-20T06:14:40;14.20;99.90
18041;DHT22;9145;48.588;9.250;2023-05-20T06:17:08;14.20;99.90
18041;DHT22;9145;48.588;9.250;2023-05-20T06:19:35;14.30;99.90
18041;DHT22;9145;48.588;9.250;2023-05-20T06:22:01;14.40;99.90
18041;DHT22;9145;48.588;9.250;2023-05-20T06:24:28;14.50;99.90
18041;DHT22;9145;48.588;9.250;2023-05-20T06:26:55;14.50;99.90
18041;DHT22;9145;48.588;9.250;2023-05-20T06:29:22;14.50;99.90
18041;DHT22;9145;48.588;9.250;2023-05-20T06:31:49;14.50;99.90
18041;DHT22;9145;48.588;9.250;2023-05-20T06:34:17;14.60;99.90
18041;DHT22;9145;48.588;9.250;2023-05-20T06:36:44;14.60;99.90
18041;DHT22;9145;48.588;9.250;2023-05-20T06:39:11;14.70;99.90
18041;DHT22;9145;48.588;9.250;2023-05-20T06:41:38;14.70;99.90
18041;DHT22;9145;48.588;9.250;2023-05-20T06:44:05;14.90;99.90
18041;DHT22;9145;48.588;9.250;2023-05-20T06:46:32;15.00;99.90
18041;DHT22;9145;48.588;9.250;2023-05-20T06:48:59;15.10;99.90
18041;DHT22;9145;48.588;9.250;2023-05-20T06:51:27;15.20;99.90
18041;DHT22;9145;48.588;9.250;2023-05-20T06:53:54;15.30;99.90
18041;DHT22;9145;48.588;9.250;2023-05-20T06:56:21;15.40;99.90
18041;DHT22;9145;48.588;9.250;2023-05-20T06:58:48;15.40;99.90
18041;DHT22;9145;48.588;9.250;2023-05-20T07:01:15;15.50;99.90
18041;DHT22;9145;48.588;9.250;2023-05-20T07:03:41;15.50;99.90
18041;DHT22;9145;48.588;9.250;2023-05-20T07:06:08;15.50;99.90
18041;DHT22;9145;48.588;9.250;2023-05-20T07:08:37;15.70;99.90
18041;DHT22;9145;48.588;9.250;2023-05-20T07:11:03;15.80;99.90
18041;DHT22;9145;48.588;9.250;2023-05-20T07:13:30;16.00;99.90
18041;DHT22;9145;48.588;9.250;2023-05-20T07:15:57;16.00;99.90
18041;DHT22;9145;48.588;9.250;2023-05-20T07:18:24;16.00;99.90
18041;DHT22;9145;48.588;9.250;2023-05-20T07:20:51;16.10;99.90
18041;DHT22;9145;48.588;9.250;2023-05-20T07:23:18;16.20;99.90
18041;DHT22;9145;48.588;9.250;2023-05-20T07:25:46;16.40;99.90
18041;DHT22;9145;48.588;9.250;2023-05-20T07:28:15;16.60;99.90
18041;DHT22;9145;48.588;9.250;2023-05-20T07:30:42;16.60;99.90
18041;DHT22;9145;48.588;9.250;2023-05-20T07:33:11;16.60;99.90
18041;DHT22;9145;48.588;9.250;2023-05-20T07:35:37;16.80;99.90
18041;DHT22;9145;48.588;9.250;2023-05-20T07:38:04;17.00;99.90
18041;DHT22;9145;48.588;9.250;2023-05-20T07:40:31;17.20;99.90
18041;DHT22;9145;48.588;9.250;2023-05-20T07:42:59;17.30;99.90
18041;DHT22;9145;48.588;9.250;2023-05-20T07:45:26;17.30;99.90
18041;DHT22;9145;48.588;9.250;2023-05-20T07:47:53;17.20;99.90
18041;DHT22;9145;48.588;9.250;2023-05-20T07:50:20;17.10;99.90
18041;DHT22;9145;48.588;9.250;2023-05-20T07:52:46;17.00;99.90
18041;DHT22;9145;48.588;9.250;2023-05-20T07:55:13;17.20;99.90
18041;DHT22;9145;48.588;9.250;2023-05-20T07:57:40;17.20;99.90
18041;DHT22;9145;48.588;9.250;2023-05-20T08:00:10;17.30;99.90
18041;DHT22;9145;48.588;9.250;2023-05-20T08:02:38;17.30;99.90
18041;DHT22;9145;48.588;9.250;2023-05-20T08:05:05;17.40;99.90
18041;DHT22;9145;48.588;9.250;2023-05-20T08:07:33;17.60;99.90
18041;DHT22;9145;48.588;9.250;2023-05-20T08:10:00;17.80;99.90
18041;DHT22;9145;48.588;9.250;2023-05-20T08:12:27;17.80;99.90
18041;DHT22;9145;48.588;9.250;2023-05-20T08:14:53;17.80;99.90
18041;DHT22;9145;48.588;9.250;2023-05-20T08:17:21;17.70;99.90
18041;DHT22;9145;48.588;9.250;2023-05-20T08:19:48;17.60;99.90
18041;DHT22;9145;48.588;9.250;2023-05-20T08:22:15;17.70;99.90
18041;DHT22;9145;48.588;9.250;2023-05-20T08:24:42;17.60;99.90
18041;DHT22;9145;48.588;9.250;2023-05-20T08:27:09;17.50;99.90
18041;DHT22;9145;48.588;9.250;2023-05-20T08:29:35;17.70;99.90
18041;DHT22;9145;48.588;9.250;2023-05-20T08:32:03;17.80;99.90
18041;DHT22;9145;48.588;9.250;2023-05-20T08:34:31;17.90;99.90
18041;DHT22;9145;48.588;9.250;2023-05-20T08:36:58;18.00;99.90
18041;DHT22;9145;48.588;9.250;2023-05-20T08:39:25;18.10;99.90
18041;DHT22;9145;48.588;9.250;2023-05-20T08:41:52;18.20;99.90
18041;DHT22;9145;48.588;9.250;2023-05-20T08:44:20;18.50;99.90
18041;DHT22;9145;48.588;9.250;2023-05-20T08:46:48;18.70;99.90
18041;DHT22;9145;48.588;9.250;2023-05-20T08:49:16;18.80;99.90
18041;DHT22;9145;48.588;9.250;2023-05-20T08:51:45;18.80;99.90
18041;DHT22;9145;48.588;9.250;2023-05-20T08:54:13;18.60;99.90
18041;DHT22;9145;48.588;9.250;2023-05-20T08:56:42;18.40;99.90
18041;DHT22;9145;48.588;9.250;2023-05-20T08:59:09;18.40;99.90
18041;DHT22;9145;48.588;9.250;2023-05-20T09:01:42;18.50;99.90
18041;DHT22;9145;48.588;9.250;2023-05-20T09:04:09;18.60;99.90
18041;DHT22;9145;48.588;9.250;2023-05-20T09:06:43;18.50;99.90
18041;DHT22;9145;48.588;9.250;2023-05-20T09:09:11;18.70;99.90
18041;DHT22;9145;48.588;9.250;2023-05-20T09:11:38;18.90;99.90
18041;DHT22;9145;48.588;9.250;2023-05-20T09:14:06;19.20;99.90
18041;DHT22;9145;48.588;9.250;2023-05-20T09:16:33;19.40;99.90
18041;DHT22;9145;48.588;9.250;2023-05-20T09:18:59;19.30;99.90
18041;DHT22;9145;48.588;9.250;2023-05-20T09:21:27;19.20;99.90
18041;DHT22;9145;48.588;9.250;2023-05-20T09:23:56;19.20;99.90
18041;DHT22;9145;48.588;9.250;2023-05-20T09:26:26;19.50;99.90
18041;DHT22;9145;48.588;9.250;2023-05-20T09:28:54;19.70;99.90
18041;DHT22;9145;48.588;9.250;2023-05-20T09:31:25;19.80;99.90
18041;DHT22;9145;48.588;9.250;2023-05-20T09:33:52;19.70;99.90
18041;DHT22;9145;48.588;9.250;2023-05-20T09:36:21;19.90;99.90
18041;DHT22;9145;48.588;9.250;2023-05-20T09:38:51;19.90;99.90
18041;DHT22;9145;48.588;9.250;2023-05-20T09:41:22;20.00;99.90
18041;DHT22;9145;48.588;9.250;2023-05-20T09:43:51;20.20;99.90
18041;DHT22;9145;48.588;9.250;2023-05-20T09:46:19;20.30;99.90
18041;DHT22;9145;48.588;9.250;2023-05-20T09:48:46;20.40;99.90
18041;DHT22;9145;48.588;9.250;2023-05-20T09:51:14;20.30;99.90
18041;DHT22;9145;48.588;9.250;2023-05-20T09:53:41;20.30;99.90
18041;DHT22;9145;48.588;9.250;2023-05-20T09:56:08;20.50;99.90
18041;DHT22;9145;48.588;9.250;2023-05-20T09:58:37;20.50;99.90
18041;DHT22;9145;48.588;9.250;2023-05-20T10:01:06;20.20;99.90
18041;DHT22;9145;48.588;9.250;2023-05-20T10:03:33;19.90;99.90
18041;DHT22;9145;48.588;9.250;2023-05-20T10:06:27;20.00;99.90
18041;DHT22;9145;48.588;9.250;2023-05-20T10:09:08;20.40;99.90
18041;DHT22;9145;48.588;9.250;2023-05-20T10:11:47;20.60;99.90
18041;DHT22;9145;48.588;9.250;2023-05-20T10:14:29;20.70;99.90
18041;DHT22;9145;48.588;9.250;2023-05-20T10:17:03;20.90;99.90
18041;DHT22;9145;48.588;9.250;2023-05-20T10:19:34;20.90;99.90
18041;DHT22;9145;48.588;9.250;2023-05-20T10:22:03;21.00;99.90
18041;DHT22;9145;48.588;9.250;2023-05-20T10:24:31;21.10;99.90
18041;DHT22;9145;48.588;9.250;2023-05-20T10:27:01;21.30;99.90
18041;DHT22;9145;48.588;9.250;2023-05-20T10:29:41;21.50;99.90
18041;DHT22;9145;48.588;9.250;2023-05-20T10:32:08;21.70;99.90
18041;DHT22;9145;48.588;9.250;2023-05-20T10:34:44;21.90;99.90
18041;DHT22;9145;48.588;9.250;2023-05-20T10:37:23;22.40;99.90
18041;DHT22;9145;48.588;9.250;2023-05-20T10:40:04;22.70;99.90
18041;DHT22;9145;48.588;9.250;2023-05-20T10:42:32;23.00;99.90
18041;DHT22;9145;48.588;9.250;2023-05-20T10:45:00;22.90;99.90
18041;DHT22;9145;48.588;9.250;2023-05-20T10:47:27;22.90;99.90
18041;DHT22;9145;48.588;9.250;2023-05-20T10:49:54;23.10;99.90
18041;DHT22;9145;48.588;9.250;2023-05-20T10:52:21;23.20;99.90
18041;DHT22;9145;48.588;9.250;2023-05-20T10:54:54;23.40;99.90
18041;DHT22;9145;48.588;9.250;2023-05-20T10:57:22;23.60;99.90
18041;DHT22;9145;48.588;9.250;2023-05-20T10:59:49;23.10;99.90
18041;DHT22;9145;48.588;9.250;2023-05-20T11:02:19;22.60;99.90
18041;DHT22;9145;48.588;9.250;2023-05-20T11:04:51;22.80;99.90
18041;DHT22;9145;48.588;9.250;2023-05-20T11:07:26;22.70;99.90
18041;DHT22;9145;48.588;9.250;2023-05-20T11:09:53;22.60;99.90
18041;DHT22;9145;48.588;9.250;2023-05-20T11:12:20;23.00;99.90
18041;DHT22;9145;48.588;9.250;2023-05-20T11:14:48;23.30;99.90
18041;DHT22;9145;48.588;9.250;2023-05-20T11:17:16;23.40;99.90
18041;DHT22;9145;48.588;9.250;2023-05-20T11:19:43;23.70;99.90
18041;DHT22;9145;48.588;9.250;2023-05-20T11:22:10;24.20;99.90
18041;DHT22;9145;48.588;9.250;2023-05-20T11:24:37;24.50;99.90
18041;DHT22;9145;48.588;9.250;2023-05-20T11:27:05;24.30;99.90
18041;DHT22;9145;48.588;9.250;2023-05-20T11:29:32;24.30;99.90
18041;DHT22;9145;48.588;9.250;2023-05-20T11:31:59;24.70;99.90
18041;DHT22;9145;48.588;9.250;2023-05-20T11:34:34;24.10;99.90
18041;DHT22;9145;48.588;9.250;2023-05-20T11:37:01;24.00;99.90
18041;DHT22;9145;48.588;9.250;2023-05-20T11:39:29;24.10;99.90
18041;DHT22;9145;48.588;9.250;2023-05-20T11:41:56;24.10;99.90
18041;DHT22;9145;48.588;9.250;2023-05-20T11:44:24;24.00;99.90
18041;DHT22;9145;48.588;9.250;2023-05-20T11:46:51;24.10;99.90
18041;DHT22;9145;48.588;9.250;2023-05-20T11:49:24;24.00;99.90
18041;DHT22;9145;48.588;9.250;2023-05-20T11:51:52;23.90;99.90
18041;DHT22;9145;48.588;9.250;2023-05-20T11:54:21;23.80;99.90
18041;DHT22;9145;48.588;9.250;2023-05-20T11:56:48;23.80;99.90
18041;DHT22;9145;48.588;9.250;2023-05-20T11:59:16;23.50;99.90
18041;DHT22;9145;48.588;9.250;2023-05-20T12:01:42;23.40;99.90
18041;DHT22;9145;48.588;9.250;2023-05-20T12:04:10;23.30;99.90
18041;DHT22;9145;48.588;9.250;2023-05-20T12:06:38;23.20;99.90
18041;DHT22;9145;48.588;9.250;2023-05-20T12:09:06;23.60;99.90
18041;DHT22;9145;48.588;9.250;2023-05-20T12:11:34;23.70;99.90
18041;DHT22;9145;48.588;9.250;2023-05-20T12:14:01;24.00;99.90
18041;DHT22;9145;48.588;9.250;2023-05-20T12:16:29;24.10;99.90
18041;DHT22;9145;48.588;9.250;2023-05-20T12:18:56;24.10;99.90
18041;DHT22;9145;48.588;9.250;2023-05-20T12:21:23;23.90;99.90
18041;DHT22;9145;48.588;9.250;2023-05-20T12:23:50;23.60;99.90
18041;DHT22;9145;48.588;9.250;2023-05-20T12:26:23;23.70;99.90
18041;DHT22;9145;48.588;9.250;2023-05-20T12:28:50;24.10;99.90
18041;DHT22;9145;48.588;9.250;2023-05-20T12:31:17;24.60;99.90
18041;DHT22;9145;48.588;9.250;2023-05-20T12:33:43;24.80;99.90
18041;DHT22;9145;48.588;9.250;2023-05-20T12:36:10;25.00;99.90
18041;DHT22;9145;48.588;9.250;2023-05-20T12:38:38;25.20;99.90
18041;DHT22;9145;48.588;9.250;2023-05-20T12:41:05;25.10;99.90
18041;DHT22;9145;48.588;9.250;2023-05-20T12:43:34;24.90;99.90
18041;DHT22;9145;48.588;9.250;2023-05-20T12:46:01;24.90;99.90
18041;DHT22;9145;48.588;9.250;2023-05-20T12:48:28;24.70;99.90
18041;DHT22;9145;48.588;9.250;2023-05-20T12:50:55;24.80;99.90
18041;DHT22;9145;48.588;9.250;2023-05-20T12:53:22;24.90;99.90
18041;DHT22;9145;48.588;9.250;2023-05-20T12:55:48;25.40;99.90
18041;DHT22;9145;48.588;9.250;2023-05-20T12:58:15;25.20;99.90
18041;DHT22;9145;48.588;9.250;2023-05-20T13:00:43;25.10;99.90
18041;DHT22;9145;48.588;9.250;2023-05-20T13:03:10;25.10;99.90
18041;DHT22;9145;48.588;9.250;2023-05-20T13:05:37;24.80;99.90
18041;DHT22;9145;48.588;9.250;2023-05-20T13:08:05;24.60;99.90
18041;DHT22;9145;48.588;9.250;2023-05-20T13:10:33;24.60;99.90
18041;DHT22;9145;48.588;9.250;2023-05-20T13:13:00;24.50;99.90
18041;DHT22;9145;48.588;9.250;2023-05-20T13:15:27;24.40;99.90
18041;DHT22;9145;48.588;9.250;2023-05-20T13:17:55;24.30;99.90
18041;DHT22;9145;48.588;9.250;2023-05-20T13:20:22;24.30;99.90
18041;DHT22;9145;48.588;9.250;2023-05-20T13:22:48;24.30;99.90
18041;DHT22;9145;48.588;9.250;2023-05-20T13:25:15;24.20;99.90
18041;DHT22;9145;48.588;9.250;2023-05-20T13:27:42;24.20;99.90
18041;DHT22;9145;48.588;9.250;2023-05-20T13:30:10;24.40;99.90
18041;DHT22;9145;48.588;9.250;2023-05-20T13:32:37;24.50;99.90
18041;DHT22;9145;48.588;9.250;2023-05-20T13:35:06;24.60;99.90
18041;DHT22;9145;48.588;9.250;2023-05-20T13:37:33;24.60;99.90
18041;DHT22;9145;48.588;9.250;2023-05-20T13:40:00;24.60;99.90
18041;DHT22;9145;48.588;9.250;2023-05-20T13:42:26;24.90;99.90
18041;DHT22;9145;48.588;9.250;2023-05-20T13:44:53;25.10;99.90
18041;DHT22;9145;48.588;9.250;2023-05-20T13:47:20;25.50;99.90
18041;DHT22;9145;48.588;9.250;2023-05-20T13:49:47;26.00;99.90
18041;DHT22;9145;48.588;9.250;2023-05-20T13:52:15;26.40;99.90
18041;DHT22;9145;48.588;9.250;2023-05-20T13:54:42;26.90;99.90
18041;DHT22;9145;48.588;9.250;2023-05-20T13:57:11;27.20;99.90
18041;DHT22;9145;48.588;9.250;2023-05-20T13:59:37;27.80;99.90
18041;DHT22;9145;48.588;9.250;2023-05-20T14:02:05;28.30;99.90
18041;DHT22;9145;48.588;9.250;2023-05-20T14:04:32;28.40;99.40
18041;DHT22;9145;48.588;9.250;2023-05-20T14:07:02;28.30;99.10
18041;DHT22;9145;48.588;9.250;2023-05-20T14:09:31;28.20;99.70
18041;DHT22;9145;48.588;9.250;2023-05-20T14:11:57;28.20;99.70
18041;DHT22;9145;48.588;9.250;2023-05-20T14:14:24;28.30;99.40
18041;DHT22;9145;48.588;9.250;2023-05-20T14:16:51;28.20;99.50
18041;DHT22;9145;48.588;9.250;2023-05-20T14:19:18;27.90;98.70
18041;DHT22;9145;48.588;9.250;2023-05-20T14:21:45;27.70;99.70
18041;DHT22;9145;48.588;9.250;2023-05-20T14:24:12;27.50;99.90
18041;DHT22;9145;48.588;9.250;2023-05-20T14:26:40;27.40;99.80
18041;DHT22;9145;48.588;9.250;2023-05-20T14:29:06;27.10;99.90
18041;DHT22;9145;48.588;9.250;2023-05-20T14:31:33;27.20;99.90
18041;DHT22;9145;48.588;9.250;2023-05-20T14:34:00;27.20;99.90
18041;DHT22;9145;48.588;9.250;2023-05-20T14:36:27;27.30;99.90
18041;DHT22;9145;48.588;9.250;2023-05-20T14:38:54;27.60;99.90
18041;DHT22;9145;48.588;9.250;2023-05-20T14:41:20;27.60;99.90
18041;DHT22;9145;48.588;9.250;2023-05-20T14:43:49;27.80;99.40
18041;DHT22;9145;48.588;9.250;2023-05-20T14:46:16;27.80;99.70
18041;DHT22;9145;48.588;9.250;2023-05-20T14:48:42;27.60;98.70
18041;DHT22;9145;48.588;9.250;2023-05-20T14:51:09;27.60;99.10
18041;DHT22;9145;48.588;9.250;2023-05-20T14:53:36;27.40;99.90
18041;DHT22;9145;48.588;9.250;2023-05-20T14:56:03;27.40;99.40
18041;DHT22;9145;48.588;9.250;2023-05-20T14:58:30;27.60;99.90
18041;DHT22;9145;48.588;9.250;2023-05-20T15:00:58;27.90;99.40
18041;DHT22;9145;48.588;9.250;2023-05-20T15:03:25;28.00;99.10
18041;DHT22;9145;48.588;9.250;2023-05-20T15:05:52;28.00;99.60
18041;DHT22;9145;48.588;9.250;2023-05-20T15:08:19;28.00;99.20
18041;DHT22;9145;48.588;9.250;2023-05-20T15:10:46;28.00;99.00
18041;DHT22;9145;48.588;9.250;2023-05-20T15:13:13;27.80;99.90
18041;DHT22;9145;48.588;9.250;2023-05-20T15:15:39;27.60;99.60
18041;DHT22;9145;48.588;9.250;2023-05-20T15:18:07;27.50;99.70
18041;DHT22;9145;48.588;9.250;2023-05-20T15:20:35;27.80;99.90
18041;DHT22;9145;48.588;9.250;2023-05-20T15:23:02;28.10;99.70
18041;DHT22;9145;48.588;9.250;2023-05-20T15:25:29;28.40;98.60
18041;DHT22;9145;48.588;9.250;2023-05-20T15:27:56;28.60;99.00
18041;DHT22;9145;48.588;9.250;2023-05-20T15:30:23;28.60;99.40
18041;DHT22;9145;48.588;9.250;2023-05-20T15:32:49;28.50;97.30
18041;DHT22;9145;48.588;9.250;2023-05-20T15:35:18;28.60;98.20
18041;DHT22;9145;48.588;9.250;2023-05-20T15:37:45;28.50;97.80
18041;DHT22;9145;48.588;9.250;2023-05-20T15:40:11;28.60;98.40
18041;DHT22;9145;48.588;9.250;2023-05-20T15:42:38;28.70;99.00
18041;DHT22;9145;48.588;9.250;2023-05-20T15:45:06;29.00;98.80
18041;DHT22;9145;48.588;9.250;2023-05-20T15:47:32;29.30;97.80